This is the latest recevied weather packets stored in our database for station/object N8HON. If no packets are shown the sender has not sent any weather packets the latest 1 day(s).
| Time | Temp. | Humidity | Pressure | Rain* | Wind** | Luminosity | Snow |
|---|---|---|---|---|---|---|---|
| 1778078474 | 15.56° C | 92% | 1007.4 hPa | 0 mm | - | 281 W/m² | - |
| 1778078172 | 15.56° C | 94% | 1007.5 hPa | 0 mm | - | 185 W/m² | - |
| 1778077870 | 15° C | 94% | 1007.4 hPa | 0 mm | - | 176 W/m² | - |
| 1778075752 | 13.33° C | 97% | 1007.8 hPa | 0 mm | - | 51 W/m² | - |
| 1778075145 | 13.33° C | 98% | 1008 hPa | 0 mm | - | 41 W/m² | - |
| 1778074841 | 12.78° C | 98% | 1007.9 hPa | 0 mm | - | 58 W/m² | - |
| 1778073327 | 12.78° C | 98% | 1008 hPa | 0 mm | - | 35 W/m² | - |
| 1778073023 | 12.78° C | 98% | 1008.1 hPa | 0 mm | - | 53 W/m² | - |
| 1778072720 | 12.78° C | 98% | 1008.1 hPa | 0 mm | - | 58 W/m² | - |
| 1778071511 | 12.22° C | 98% | 1007.9 hPa | 0 mm | - | 79 W/m² | - |
| 1778070604 | 12.22° C | 98% | 1008.2 hPa | 1.78 mm | - | 53 W/m² | - |
| 1778069999 | 12.22° C | 98% | 1008.1 hPa | 0 mm | - | 31 W/m² | - |
| 1778068787 | 12.22° C | 97% | 1008 hPa | 1.78 mm | - | 46 W/m² | - |
| 1778068485 | 12.22° C | 97% | 1008.2 hPa | 1.78 mm | - | 34 W/m² | - |
| 1778068183 | 11.67° C | 97% | 1008.1 hPa | 1.27 mm | - | 16 W/m² | - |
| 1778067880 | 11.67° C | 96% | 1008 hPa | 3.05 mm | - | 22 W/m² | - |
| 1778067276 | 12.22° C | 96% | 1008.1 hPa | 0 mm | - | 11 W/m² | - |
| 1778066972 | 12.22° C | 95% | 1008.3 hPa | 1.27 mm | - | 10 W/m² | - |
| 1778066367 | 12.22° C | 94% | 1008.1 hPa | 1.78 mm | - | 6 W/m² | - |
| 1778065762 | 12.22° C | 94% | 1008 hPa | 0 mm | - | 8 W/m² | - |
| 1778065460 | 12.22° C | 93% | 1007.8 hPa | 1.27 mm | - | 5 W/m² | - |
| 1778065156 | 12.22° C | 92% | 1007.8 hPa | 1.27 mm | - | 4 W/m² | - |
| 1778064550 | 12.78° C | 91% | 1008.1 hPa | 0 mm | - | 4 W/m² | - |
| 1778064248 | 12.78° C | 91% | 1008 hPa | 0 mm | - | 6 W/m² | - |
| 1778063038 | 13.89° C | 83% | 1008 hPa | 0 mm | - | 0 W/m² | - |
* Rain latest hour (hover to see other rain measurements)
** Current wind speed in m/s (hover to see current wind gust speed)